Time;durP1;ratioP1;P1;durP2;ratioP2;P2;SDS_P1;SDS_P2;PMS_P1;PMS_P2;Temp;Humidity;BMP_temperature;BMP_pressure;BME280_temperature;BME280_humidity;BME280_pressure;Samples;Min_cycle;Max_cycle;Signal;HPM_P1;HPM_P2
2022/02/16 00:00:59;;;;;;;16.65;13.83;;;;;;;2.17;82.58;99150.47;1757431;80;21165;-64
2022/02/16 00:03:26;;;;;;;18.95;13.78;;;;;;;2.17;82.67;99151.78;1768228;80;21433;-64
2022/02/16 00:05:52;;;;;;;16.82;13.40;;;;;;;2.14;82.73;99145.97;1779656;80;21449;-64
2022/02/16 00:08:20;;;;;;;15.10;13.40;;;;;;;2.12;82.79;99149.17;1758798;80;21093;-63
2022/02/16 00:10:47;;;;;;;16.82;13.93;;;;;;;2.09;82.88;99150.25;1772135;80;21504;-64
2022/02/16 00:13:14;;;;;;;15.93;13.15;;;;;;;2.09;82.90;99153.35;1776087;80;21152;-65
2022/02/16 00:15:40;;;;;;;18.60;13.55;;;;;;;2.08;82.95;99157.80;1776578;80;21057;-65
2022/02/16 00:18:07;;;;;;;18.35;14.25;;;;;;;2.08;82.96;99151.23;1763501;80;21025;-63
2022/02/16 00:20:35;;;;;;;17.07;13.55;;;;;;;2.08;83.02;99143.36;1766815;80;21504;-65
2022/02/16 00:23:03;;;;;;;18.57;14.33;;;;;;;2.07;83.06;99132.50;1764365;80;20933;-63
2022/02/16 00:25:30;;;;;;;19.45;14.30;;;;;;;2.05;83.12;99124.40;1772484;80;21133;-65
2022/02/16 00:27:56;;;;;;;16.95;14.40;;;;;;;2.03;83.22;99136.81;1771864;80;20927;-64
2022/02/16 00:30:25;;;;;;;19.37;14.43;;;;;;;2.00;83.20;99139.69;1775907;80;20982;-64
2022/02/16 00:32:52;;;;;;;19.25;14.65;;;;;;;1.96;83.28;99136.47;1763170;80;21022;-66
2022/02/16 00:35:19;;;;;;;15.75;14.05;;;;;;;1.96;83.28;99142.19;1771278;80;21073;-64
2022/02/16 00:37:46;;;;;;;17.90;14.38;;;;;;;1.95;83.37;99147.94;1770268;80;21154;-66
2022/02/16 00:40:12;;;;;;;15.85;13.58;;;;;;;1.95;83.40;99145.31;1770800;80;20863;-63
2022/02/16 00:42:39;;;;;;;24.75;15.00;;;;;;;1.94;83.46;99137.55;1770070;80;21017;-64
2022/02/16 00:45:07;;;;;;;19.67;14.45;;;;;;;1.93;83.48;99143.27;1780059;80;20983;-64
2022/02/16 00:47:35;;;;;;;18.70;15.05;;;;;;;1.91;83.52;99139.94;1778590;80;21562;-64
2022/02/16 00:50:03;;;;;;;18.15;14.33;;;;;;;1.92;83.52;99140.31;1768333;80;21127;-63
2022/02/16 00:52:32;;;;;;;18.37;14.90;;;;;;;1.93;83.53;99142.46;1752126;82;21443;-63
2022/02/16 00:54:58;;;;;;;21.12;15.58;;;;;;;1.92;83.54;99149.49;1754072;80;20991;-63
2022/02/16 00:57:27;;;;;;;18.98;13.65;;;;;;;1.91;83.55;99145.19;1752358;80;21094;-65
2022/02/16 00:59:53;;;;;;;18.37;14.55;;;;;;;1.91;83.53;99143.04;1740784;80;20875;-65
2022/02/16 01:02:19;;;;;;;18.80;14.87;;;;;;;1.89;83.57;99136.61;1779279;80;21132;-63
2022/02/16 01:04:47;;;;;;;18.20;14.85;;;;;;;1.88;83.62;99133.63;1749989;82;21027;-64
2022/02/16 01:07:14;;;;;;;20.25;14.50;;;;;;;1.88;83.59;99134.94;1744341;82;20849;-65
2022/02/16 01:09:42;;;;;;;15.65;12.55;;;;;;;1.85;83.63;99137.33;1750220;80;20986;-65
2022/02/16 01:12:09;;;;;;;18.05;14.23;;;;;;;1.84;83.67;99131.75;1765292;80;20974;-65
2022/02/16 01:14:36;;;;;;;18.30;14.35;;;;;;;1.84;83.71;99138.31;1770429;80;21228;-65
2022/02/16 01:17:10;;;;;;;18.35;14.53;;;;;;;1.85;83.74;99136.52;1770365;80;20915;-66
2022/02/16 01:19:44;;;;;;;17.40;14.00;;;;;;;1.83;83.74;99124.83;1744986;80;21566;-66
2022/02/16 01:22:11;;;;;;;17.30;13.93;;;;;;;1.81;83.81;99120.19;1744105;82;20905;-66
2022/02/16 01:24:38;;;;;;;16.97;13.93;;;;;;;1.79;83.88;99118.17;1757483;80;20994;-63
2022/02/16 01:27:05;;;;;;;20.05;13.78;;;;;;;1.78;83.91;99118.28;1751056;80;21103;-65
2022/02/16 01:29:33;;;;;;;18.70;13.35;;;;;;;1.75;83.98;99105.41;1757408;80;20841;-64
2022/02/16 01:32:01;;;;;;;17.12;13.78;;;;;;;1.72;84.05;99101.75;1751921;80;20929;-62
2022/02/16 01:34:30;;;;;;;16.65;13.85;;;;;;;1.73;84.12;99100.77;1769547;80;21033;-64
2022/02/16 01:36:56;;;;;;;17.62;13.83;;;;;;;1.71;84.19;99096.14;1772030;80;21432;-64
2022/02/16 01:39:23;;;;;;;17.98;14.90;;;;;;;1.69;84.24;99102.83;1769006;80;21138;-65
2022/02/16 01:41:53;;;;;;;18.23;15.30;;;;;;;1.67;84.30;99102.56;1772057;80;20935;-64
2022/02/16 01:44:22;;;;;;;23.60;17.23;;;;;;;1.66;84.30;99097.83;1757227;80;20984;-63
2022/02/16 01:46:55;;;;;;;22.22;15.98;;;;;;;1.64;84.36;99095.78;1745971;80;21541;-64
2022/02/16 01:49:23;;;;;;;18.45;14.47;;;;;;;1.62;84.49;99094.24;1750346;80;20844;-63
2022/02/16 01:51:50;;;;;;;19.20;14.23;;;;;;;1.58;84.61;99092.84;1746058;80;21150;-65
2022/02/16 01:54:18;;;;;;;18.02;14.95;;;;;;;1.58;84.69;99094.14;1766480;80;20971;-63
2022/02/16 01:56:47;;;;;;;21.77;15.43;;;;;;;1.56;84.83;99092.13;1771363;80;20927;-63
2022/02/16 01:59:17;;;;;;;21.62;15.13;;;;;;;1.57;84.86;99091.16;1752133;80;20934;-65
2022/02/16 02:02:03;;;;;;;21.75;16.30;;;;;;;1.55;84.92;99089.14;1743544;80;21426;-65
2022/02/16 02:04:30;;;;;;;23.42;16.95;;;;;;;1.54;84.97;99075.20;1766918;80;21167;-65
2022/02/16 02:06:59;;;;;;;23.18;17.25;;;;;;;1.52;85.00;99069.25;1753929;80;20943;-64
2022/02/16 02:09:27;;;;;;;21.60;16.77;;;;;;;1.50;85.05;99067.23;1757607;80;20963;-64
2022/02/16 02:11:53;;;;;;;19.42;15.45;;;;;;;1.46;85.20;99065.80;1755834;80;20896;-66
2022/02/16 02:14:22;;;;;;;21.25;15.72;;;;;;;1.45;85.31;99073.80;1766739;80;20903;-65
2022/02/16 02:16:50;;;;;;;20.48;16.30;;;;;;;1.42;85.35;99073.57;1755130;80;21257;-66
2022/02/16 02:19:18;;;;;;;17.95;15.00;;;;;;;1.40;85.47;99078.58;1757549;80;20987;-63
2022/02/16 02:21:47;;;;;;;21.00;15.45;;;;;;;1.42;85.53;99082.75;1761929;80;20923;-65
2022/02/16 02:24:14;;;;;;;24.82;16.65;;;;;;;1.44;85.57;99079.52;1771797;80;20943;-65
2022/02/16 02:26:41;;;;;;;23.50;17.02;;;;;;;1.46;85.58;99079.41;1766851;80;20993;-65
2022/02/16 02:29:07;;;;;;;19.37;16.07;;;;;;;1.45;85.67;99077.27;1754469;80;21217;-64
2022/02/16 02:31:37;;;;;;;23.40;16.02;;;;;;;1.45;85.76;99072.49;1680553;83;21075;-65
2022/02/16 02:34:04;;;;;;;19.32;15.53;;;;;;;1.46;85.80;99071.55;1762587;80;20971;-63
2022/02/16 02:36:31;;;;;;;18.37;15.60;;;;;;;1.43;85.90;99067.38;1757075;80;21517;-65
2022/02/16 02:38:58;;;;;;;21.12;15.03;;;;;;;1.42;85.91;99066.18;1746027;80;21095;-63
2022/02/16 02:41:24;;;;;;;26.37;15.00;;;;;;;1.40;85.96;99061.55;1767481;80;21166;-64
2022/02/16 02:43:51;;;;;;;19.65;15.32;;;;;;;1.42;85.98;99064.87;1761033;80;20963;-64
2022/02/16 02:46:19;;;;;;;17.52;14.20;;;;;;;1.39;86.03;99067.73;1771263;80;20912;-65
2022/02/16 02:48:47;;;;;;;20.60;15.28;;;;;;;1.38;86.07;99070.02;1756673;80;21044;-64
2022/02/16 02:51:15;;;;;;;32.53;17.45;;;;;;;1.38;86.08;99062.16;1767795;80;20911;-64
2022/02/16 02:53:42;;;;;;;22.60;16.37;;;;;;;1.40;86.09;99067.62;1745715;80;21204;-64
2022/02/16 02:56:09;;;;;;;20.97;15.35;;;;;;;1.38;86.16;99059.06;1750487;80;20976;-65
2022/02/16 02:58:38;;;;;;;19.73;15.60;;;;;;;1.40;86.20;99051.90;1748108;80;20951;-64
2022/02/16 03:01:05;;;;;;;22.42;15.75;;;;;;;1.42;86.16;99049.14;1764265;80;20860;-64
2022/02/16 03:03:35;;;;;;;20.48;15.60;;;;;;;1.40;86.22;99044.50;1770275;80;20987;-64
2022/02/16 03:06:04;;;;;;;19.42;15.80;;;;;;;1.41;86.17;99055.36;1764157;80;21208;-63
2022/02/16 03:08:30;;;;;;;21.90;16.82;;;;;;;1.38;86.23;99056.91;1749675;80;21000;-64
2022/02/16 03:10:57;;;;;;;22.93;16.82;;;;;;;1.42;86.17;99059.62;1753180;80;20932;-64
2022/02/16 03:13:24;;;;;;;22.27;16.20;;;;;;;1.41;86.21;99064.03;1769535;80;20976;-65
2022/02/16 03:15:54;;;;;;;19.37;15.88;;;;;;;1.41;86.26;99060.59;1770819;80;20920;-64
2022/02/16 03:18:21;;;;;;;21.90;17.20;;;;;;;1.43;86.31;99062.61;1770090;80;21768;-65
2022/02/16 03:20:51;;;;;;;20.40;16.40;;;;;;;1.45;86.31;99062.01;1755770;80;21053;-64
2022/02/16 03:23:17;;;;;;;22.93;17.17;;;;;;;1.45;86.32;99057.60;1750226;80;21560;-63
2022/02/16 03:25:44;;;;;;;22.75;17.57;;;;;;;1.49;86.31;99056.86;1743258;80;21130;-63
2022/02/16 03:28:13;;;;;;;23.85;17.98;;;;;;;1.47;86.27;99064.86;1743756;80;21070;-63
2022/02/16 03:30:40;;;;;;;30.82;20.77;;;;;;;1.49;86.29;99063.41;1746114;80;21973;-65
2022/02/16 03:33:07;;;;;;;25.32;20.00;;;;;;;1.49;86.23;99060.31;1763552;80;20920;-65
2022/02/16 03:35:33;;;;;;;27.30;19.67;;;;;;;1.53;86.18;99063.53;1769964;80;21422;-64
2022/02/16 03:38:01;;;;;;;26.62;20.17;;;;;;;1.56;86.15;99064.61;1766216;80;20923;-63
2022/02/16 03:40:29;;;;;;;34.50;22.13;;;;;;;1.57;86.13;99066.25;1767400;80;20958;-63
2022/02/16 03:42:56;;;;;;;24.82;19.55;;;;;;;1.59;86.13;99070.92;1755411;80;21148;-63
2022/02/16 03:45:24;;;;;;;28.25;20.30;;;;;;;1.62;86.10;99071.48;1761475;80;20886;-63
2022/02/16 03:47:53;;;;;;;26.93;18.87;;;;;;;1.66;86.04;99068.14;1744007;82;20881;-64
2022/02/16 03:50:22;;;;;;;24.70;18.95;;;;;;;1.68;85.95;99072.31;1750649;80;20959;-64
2022/02/16 03:52:50;;;;;;;26.02;18.92;;;;;;;1.69;85.87;99070.52;1744138;82;20980;-64
2022/02/16 03:55:17;;;;;;;23.87;17.87;;;;;;;1.69;85.76;99074.45;1748108;80;21117;-64
2022/02/16 03:57:44;;;;;;;26.90;18.62;;;;;;;1.67;85.71;99076.34;1746676;80;20990;-62
2022/02/16 04:00:12;;;;;;;27.75;19.85;;;;;;;1.64;85.81;99071.37;1761414;80;20940;-65
2022/02/16 04:02:41;;;;;;;28.02;20.15;;;;;;;1.64;85.80;99066.13;1769084;80;21031;-63
2022/02/16 04:05:10;;;;;;;27.02;19.40;;;;;;;1.64;85.74;99063.52;1748836;80;21016;-64
2022/02/16 04:07:36;;;;;;;25.08;18.60;;;;;;;1.62;85.76;99060.16;1770049;80;21122;-64
2022/02/16 04:10:05;;;;;;;22.98;18.35;;;;;;;1.63;85.80;99052.66;1753498;80;20943;-64
2022/02/16 04:12:34;;;;;;;24.87;17.95;;;;;;;1.60;85.83;99043.25;1747182;80;20900;-63
2022/02/16 04:15:01;;;;;;;25.90;19.17;;;;;;;1.61;85.84;99038.84;1763272;80;20931;-64
2022/02/16 04:17:30;;;;;;;28.02;20.02;;;;;;;1.59;85.83;99038.14;1771113;80;20994;-65
2022/02/16 04:19:58;;;;;;;29.85;21.02;;;;;;;1.54;85.89;99042.42;1772022;80;21335;-66
2022/02/16 04:22:25;;;;;;;35.85;23.07;;;;;;;1.53;85.97;99042.09;1755789;80;21391;-65
2022/02/16 04:24:55;;;;;;;39.65;23.77;;;;;;;1.51;86.09;99051.84;1770472;80;20888;-64
2022/02/16 04:27:21;;;;;;;38.42;23.45;;;;;;;1.56;86.07;99047.09;1770773;80;21469;-63
2022/02/16 04:29:47;;;;;;;41.42;24.10;;;;;;;1.60;86.07;99044.56;1771892;80;20970;-65
2022/02/16 04:32:14;;;;;;;37.08;24.20;;;;;;;1.61;86.14;99040.16;1747096;80;21158;-65
2022/02/16 04:34:41;;;;;;;36.28;23.80;;;;;;;1.63;86.16;99038.23;1759058;80;20924;-63
2022/02/16 04:37:07;;;;;;;37.25;22.00;;;;;;;1.65;86.13;99035.00;1771021;80;21035;-65
2022/02/16 04:39:34;;;;;;;31.10;21.20;;;;;;;1.67;86.06;99027.84;1770463;80;20903;-64
2022/02/16 04:42:03;;;;;;;26.95;19.65;;;;;;;1.67;85.97;99029.98;1763056;80;20875;-63
2022/02/16 04:44:30;;;;;;;28.52;19.37;;;;;;;1.65;85.95;99019.27;1768978;80;21222;-64
2022/02/16 04:46:58;;;;;;;26.75;18.12;;;;;;;1.62;85.95;99022.97;1760295;80;20983;-66
2022/02/16 04:49:25;;;;;;;22.40;17.60;;;;;;;1.64;85.96;99016.31;1770150;80;21350;-64
2022/02/16 04:51:51;;;;;;;26.00;18.60;;;;;;;1.63;85.97;99010.23;1747553;80;21516;-63
2022/02/16 04:54:18;;;;;;;26.62;19.80;;;;;;;1.62;86.04;99011.65;1746655;80;21086;-65
2022/02/16 04:56:44;;;;;;;28.47;20.80;;;;;;;1.62;86.18;99016.42;1771385;80;21160;-64
2022/02/16 04:59:11;;;;;;;25.80;20.97;;;;;;;1.68;86.17;99009.84;1771791;80;20962;-64
2022/02/16 05:01:38;;;;;;;26.70;19.80;;;;;;;1.71;86.14;99006.98;1770277;80;21531;-65
2022/02/16 05:04:06;;;;;;;25.62;19.62;;;;;;;1.74;86.17;98998.39;1755751;80;20892;-66
2022/02/16 05:06:34;;;;;;;20.27;16.85;;;;;;;1.73;86.18;98999.81;1769983;80;20868;-65
2022/02/16 05:09:02;;;;;;;25.52;18.57;;;;;;;1.76;86.21;98999.56;1753757;80;21104;-64
2022/02/16 05:11:28;;;;;;;30.50;21.23;;;;;;;1.79;86.18;99000.63;1755830;80;21245;-65
2022/02/16 05:13:58;;;;;;;27.90;20.15;;;;;;;1.85;86.10;99011.93;1761987;80;21023;-65
2022/02/16 05:16:26;;;;;;;28.73;21.17;;;;;;;1.88;85.99;99016.09;1757106;80;20927;-63
2022/02/16 05:18:55;;;;;;;30.48;21.93;;;;;;;1.90;85.94;99015.47;1730132;81;20876;-65
2022/02/16 05:21:23;;;;;;;31.65;21.90;;;;;;;1.91;85.92;99016.65;1758680;80;21945;-63
2022/02/16 05:23:49;;;;;;;32.48;22.50;;;;;;;1.94;85.81;99009.00;1700873;84;20971;-64
2022/02/16 05:26:16;;;;;;;31.10;21.90;;;;;;;1.96;85.72;99012.32;1749617;80;21456;-66
2022/02/16 05:28:43;;;;;;;30.72;22.82;;;;;;;1.97;85.61;99010.06;1760939;80;20994;-67
2022/02/16 05:31:10;;;;;;;28.35;21.82;;;;;;;1.96;85.63;99005.77;1748949;80;20900;-66
2022/02/16 05:33:37;;;;;;;31.37;22.67;;;;;;;1.99;85.53;99010.77;1745719;80;21157;-65
2022/02/16 05:36:04;;;;;;;27.52;21.00;;;;;;;2.02;85.48;99007.89;1744610;80;21493;-64
2022/02/16 05:38:33;;;;;;;25.05;19.90;;;;;;;2.06;85.51;99009.31;1750592;80;20979;-64
2022/02/16 05:41:00;;;;;;;27.05;19.87;;;;;;;2.09;85.51;99001.99;1755561;80;21511;-65
2022/02/16 05:43:27;;;;;;;31.15;21.55;;;;;;;2.19;85.55;99019.13;1757377;80;21453;-63
2022/02/16 05:45:54;;;;;;;27.98;19.17;;;;;;;2.27;85.44;99008.31;1749415;80;21167;-64
2022/02/16 05:48:23;;;;;;;24.63;20.15;;;;;;;2.33;85.21;99005.66;1763171;80;20978;-64
2022/02/16 05:50:51;;;;;;;29.37;21.45;;;;;;;2.36;85.02;99002.31;1745721;80;20972;-64
2022/02/16 05:53:19;;;;;;;30.45;21.80;;;;;;;2.43;84.81;99003.91;1756515;80;20983;-65
2022/02/16 05:55:45;;;;;;;29.67;21.73;;;;;;;2.43;84.36;98993.41;1751867;80;20955;-64
2022/02/16 05:58:12;;;;;;;29.65;21.75;;;;;;;2.45;84.08;98992.83;1745308;80;21791;-65
2022/02/16 06:00:39;;;;;;;28.98;21.17;;;;;;;2.43;83.90;98991.62;1761882;80;20907;-63
2022/02/16 06:03:06;;;;;;;29.90;20.85;;;;;;;2.40;83.83;98994.50;1756800;80;20856;-63
2022/02/16 06:05:35;;;;;;;27.13;19.02;;;;;;;2.39;83.79;98996.80;1746657;80;20891;-63
2022/02/16 06:08:02;;;;;;;25.60;19.62;;;;;;;2.39;83.69;98998.11;1760411;80;21006;-64
2022/02/16 06:10:30;;;;;;;26.90;21.42;;;;;;;2.39;83.74;98996.80;1755308;80;21843;-63
2022/02/16 06:13:00;;;;;;;27.17;20.72;;;;;;;2.41;83.73;98996.18;1759444;80;21013;-69
2022/02/16 06:15:28;;;;;;;27.50;21.07;;;;;;;2.43;83.67;98996.04;1751461;82;20983;-67
2022/02/16 06:17:55;;;;;;;27.48;20.40;;;;;;;2.46;83.71;98992.68;1767020;80;20899;-64
2022/02/16 06:20:22;;;;;;;26.80;19.92;;;;;;;2.51;83.66;98990.97;1766861;80;21521;-66
2022/02/16 06:22:53;;;;;;;28.92;20.77;;;;;;;2.55;83.51;98984.50;1760732;80;20912;-62
2022/02/16 06:25:19;;;;;;;26.20;20.25;;;;;;;2.58;83.36;98976.37;1773919;80;21488;-67
2022/02/16 06:27:46;;;;;;;32.98;22.27;;;;;;;2.58;83.15;98972.91;1728124;83;21058;-63
2022/02/16 06:30:14;;;;;;;48.40;29.07;;;;;;;2.56;83.14;98987.46;1775054;80;20942;-66
2022/02/16 06:32:51;;;;;;;36.25;25.12;;;;;;;2.57;83.03;99003.58;1779984;80;21507;-66
2022/02/16 06:35:18;;;;;;;37.38;28.10;;;;;;;2.60;82.93;99006.42;1779245;80;21067;-65
2022/02/16 06:37:45;;;;;;;36.75;26.20;;;;;;;2.63;82.88;98996.97;1779194;80;21021;-63
2022/02/16 06:40:13;;;;;;;47.43;30.32;;;;;;;2.68;82.95;99009.23;1780027;80;20943;-66
2022/02/16 06:42:42;;;;;;;37.80;25.25;;;;;;;2.77;82.91;99017.14;1716348;83;21518;-65
2022/02/16 06:45:10;;;;;;;31.68;23.25;;;;;;;2.83;82.82;99014.46;1716626;83;21461;-65
2022/02/16 06:47:39;;;;;;;28.80;21.68;;;;;;;2.91;82.86;99002.81;1764450;80;21154;-63
2022/02/16 06:50:06;;;;;;;31.45;20.95;;;;;;;3.01;82.71;99004.50;1772560;80;21473;-64
2022/02/16 06:52:35;;;;;;;26.50;21.68;;;;;;;3.08;82.40;98995.11;1776533;80;21253;-64
2022/02/16 06:55:02;;;;;;;43.50;25.55;;;;;;;3.23;82.34;98999.52;1779923;80;20931;-63
2022/02/16 06:57:28;;;;;;;37.38;26.23;;;;;;;3.59;82.79;99001.49;1778336;80;21025;-63
2022/02/16 07:00:06;;;;;;;30.68;23.75;;;;;;;4.12;82.57;99006.31;1765865;80;20924;-65
2022/02/16 07:02:32;;;;;;;37.67;25.08;;;;;;;4.87;82.17;98995.67;1777948;80;20970;-63
2022/02/16 07:04:59;;;;;;;33.90;23.70;;;;;;;5.73;80.71;98989.84;1779857;80;21477;-62
2022/02/16 07:07:26;;;;;;;31.80;23.50;;;;;;;6.63;78.45;98993.48;1777588;80;20996;-63
2022/02/16 07:09:53;;;;;;;33.20;25.52;;;;;;;7.50;75.79;98991.84;1769827;80;20907;-64
2022/02/16 07:12:21;;;;;;;30.37;25.12;;;;;;;8.27;72.47;98989.58;1766704;80;21076;-62
2022/02/16 07:14:54;;;;;;;30.08;22.02;;;;;;;9.01;69.39;98992.39;1759160;80;20982;-63
2022/02/16 07:17:18;;;;;;;25.68;21.05;;;;;;;9.76;66.29;98985.49;1764724;80;21045;-61
2022/02/16 07:19:45;;;;;;;30.20;22.80;;;;;;;10.54;63.00;98984.68;1707453;83;21019;-61
2022/02/16 07:22:14;;;;;;;26.10;20.90;;;;;;;11.22;60.10;98983.56;1713844;83;20935;-62
2022/02/16 07:24:44;;;;;;;24.12;19.95;;;;;;;11.76;56.12;98981.66;1779429;80;20947;-63
2022/02/16 07:27:12;;;;;;;26.15;20.75;;;;;;;12.14;54.77;98963.56;1770462;80;20895;-63
2022/02/16 07:29:40;;;;;;;24.77;22.02;;;;;;;12.42;52.28;98963.57;1764112;80;20947;-64
2022/02/16 07:32:07;;;;;;;30.52;23.42;;;;;;;12.37;50.60;98966.83;1763742;80;20899;-63
2022/02/16 07:34:37;;;;;;;31.95;24.70;;;;;;;12.10;50.19;98966.28;1761339;80;21035;-63
2022/02/16 07:37:05;;;;;;;34.23;26.73;;;;;;;11.85;49.77;98956.22;1778466;80;21846;-63
2022/02/16 07:39:33;;;;;;;35.20;26.57;;;;;;;11.65;50.17;98946.68;1775443;80;21041;-64
2022/02/16 07:42:02;;;;;;;34.27;27.82;;;;;;;11.29;50.37;98940.02;1780636;80;21571;-60
2022/02/16 07:44:42;;;;;;;31.00;25.52;;;;;;;10.95;50.83;98929.99;1740042;80;20977;-63
2022/02/16 07:47:10;;;;;;;32.08;25.77;;;;;;;10.63;51.15;98930.41;1779353;80;21034;-63
2022/02/16 07:49:37;;;;;;;35.30;25.52;;;;;;;10.57;52.10;98934.28;1777917;80;21574;-62
2022/02/16 07:52:22;;;;;;;32.30;25.50;;;;;;;10.94;52.32;98924.37;1761682;80;21453;-64
2022/02/16 07:54:50;;;;;;;28.15;23.62;;;;;;;11.64;51.69;98917.05;1758868;80;21560;-63
2022/02/16 07:57:18;;;;;;;27.22;22.40;;;;;;;12.30;49.61;98920.63;1762697;80;20958;-65
2022/02/16 07:59:45;;;;;;;25.52;22.50;;;;;;;12.81;48.71;98914.45;1769576;80;20954;-64
2022/02/16 08:02:12;;;;;;;26.37;22.60;;;;;;;13.26;46.13;98910.36;1768101;80;21117;-65
2022/02/16 08:04:40;;;;;;;27.67;22.55;;;;;;;13.59;46.41;98917.93;1774773;80;20919;-62
2022/02/16 08:07:07;;;;;;;27.85;21.77;;;;;;;13.99;45.34;98924.16;1773222;80;20972;-62
2022/02/16 08:09:33;;;;;;;31.57;22.13;;;;;;;14.34;44.53;98924.77;1762817;80;20950;-63
2022/02/16 08:12:00;;;;;;;31.97;22.48;;;;;;;14.68;43.54;98917.81;1755726;80;21007;-63
2022/02/16 08:14:33;;;;;;;25.95;20.20;;;;;;;14.97;43.00;98911.14;1753044;80;21175;-65
2022/02/16 08:16:57;;;;;;;24.85;21.70;;;;;;;15.35;42.23;98911.19;1755388;80;20912;-64
2022/02/16 08:19:24;;;;;;;30.17;23.32;;;;;;;15.76;41.41;98902.70;1758337;80;21630;-63
2022/02/16 08:21:57;;;;;;;26.77;22.37;;;;;;;16.15;40.36;98897.55;1767727;80;21426;-63
2022/02/16 08:24:25;;;;;;;28.12;22.85;;;;;;;16.35;39.37;98896.84;1758402;80;20998;-62
2022/02/16 08:26:54;;;;;;;27.02;21.97;;;;;;;16.29;39.24;98903.11;1745652;80;21178;-60
2022/02/16 08:29:24;;;;;;;33.83;23.10;;;;;;;16.18;39.02;98899.80;1749070;80;21433;-66
2022/02/16 08:31:52;;;;;;;31.65;23.27;;;;;;;16.06;39.02;98913.92;1751595;80;20892;-62
2022/02/16 08:34:21;;;;;;;30.00;22.20;;;;;;;15.76;38.61;98913.44;1757102;80;20907;-63
2022/02/16 08:36:55;;;;;;;28.70;23.10;;;;;;;15.44;39.58;98920.09;1755805;80;21468;-63
2022/02/16 08:39:17;;;;;;;27.80;22.98;;;;;;;15.40;39.88;98917.55;1759495;80;21138;-62
2022/02/16 08:41:45;;;;;;;30.85;22.98;;;;;;;15.47;39.78;98917.53;1750851;80;21661;-62
2022/02/16 08:44:11;;;;;;;28.55;22.60;;;;;;;15.55;39.48;98914.60;1765876;80;21109;-61
2022/02/16 08:46:39;;;;;;;23.98;20.62;;;;;;;15.67;39.45;98914.75;1769303;80;21098;-64
2022/02/16 08:49:06;;;;;;;22.48;19.12;;;;;;;15.65;38.76;98910.92;1752313;80;20939;-60
2022/02/16 08:51:32;;;;;;;23.65;19.65;;;;;;;15.65;39.33;98900.20;1767166;80;21991;-68
2022/02/16 08:53:59;;;;;;;24.82;21.23;;;;;;;15.72;38.85;98889.45;1754124;80;21014;-64
2022/02/16 08:56:25;;;;;;;25.15;21.10;;;;;;;15.60;38.67;98889.30;1758346;80;21453;-68
2022/02/16 08:58:52;;;;;;;30.43;21.95;;;;;;;15.40;39.33;98888.07;1753735;80;21061;-68
2022/02/16 09:01:18;;;;;;;22.30;19.00;;;;;;;15.42;39.24;98884.65;1760160;80;20958;-68
2022/02/16 09:03:45;;;;;;;24.20;19.17;;;;;;;15.42;39.17;98895.88;1759455;80;21110;-66
2022/02/16 09:06:12;;;;;;;23.00;18.92;;;;;;;15.42;39.16;98876.61;1763991;80;21477;-69
2022/02/16 09:08:39;;;;;;;24.25;20.50;;;;;;;15.47;39.28;98875.98;1769361;80;21489;-67
2022/02/16 09:11:05;;;;;;;23.18;20.08;;;;;;;15.49;39.21;98873.11;1771239;80;20891;-64
2022/02/16 09:13:33;;;;;;;24.35;20.23;;;;;;;15.41;38.97;98868.77;1767337;80;20972;-66
2022/02/16 09:16:00;;;;;;;24.67;18.20;;;;;;;15.17;38.95;98872.22;1769056;80;21267;-65
2022/02/16 09:18:27;;;;;;;22.70;18.42;;;;;;;14.89;39.67;98871.73;1769545;80;20880;-65
2022/02/16 09:20:54;;;;;;;22.70;18.15;;;;;;;14.80;40.11;98871.15;1762295;80;20974;-65
2022/02/16 09:23:21;;;;;;;22.48;19.20;;;;;;;14.96;39.89;98881.90;1770487;80;20923;-65
2022/02/16 09:25:47;;;;;;;25.37;22.60;;;;;;;15.06;39.63;98885.77;1764596;80;21561;-64
2022/02/16 09:28:14;;;;;;;25.60;20.32;;;;;;;14.98;39.95;98879.31;1754330;80;21114;-67
2022/02/16 09:30:41;;;;;;;23.47;20.55;;;;;;;14.95;40.04;98864.17;1754872;80;20990;-66
2022/02/16 09:33:07;;;;;;;27.00;20.95;;;;;;;14.69;40.11;98864.59;1753179;80;21497;-66
2022/02/16 09:35:34;;;;;;;27.02;18.12;;;;;;;14.37;40.61;98853.45;1754616;80;20995;-67
2022/02/16 09:38:01;;;;;;;22.65;17.90;;;;;;;14.05;41.13;98855.65;1756490;80;20947;-66
2022/02/16 09:40:28;;;;;;;24.30;18.95;;;;;;;13.61;41.68;98843.71;1768349;80;22003;-66
2022/02/16 09:42:58;;;;;;;27.62;18.65;;;;;;;13.15;42.63;98836.15;1753750;80;21579;-66
2022/02/16 09:45:24;;;;;;;18.87;16.90;;;;;;;12.69;43.48;98841.82;1744502;80;20891;-68
2022/02/16 09:47:51;;;;;;;21.70;17.10;;;;;;;12.19;44.52;98828.33;1756005;80;21043;-65
2022/02/16 09:50:18;;;;;;;20.02;16.32;;;;;;;11.78;45.38;98832.25;1766816;80;21582;-66
2022/02/16 09:52:45;;;;;;;21.27;15.23;;;;;;;11.40;46.25;98826.85;1757347;80;21214;-69
2022/02/16 09:55:12;;;;;;;17.17;15.32;;;;;;;11.06;47.23;98828.88;1755419;80;20915;-68
2022/02/16 09:57:39;;;;;;;18.23;15.30;;;;;;;10.75;47.97;98822.50;1758314;80;20927;-70
2022/02/16 10:00:11;;;;;;;16.32;14.60;;;;;;;10.51;48.71;98820.16;1752429;80;20939;-64
2022/02/16 10:02:41;;;;;;;17.80;14.68;;;;;;;10.26;49.27;98826.28;1764481;80;20946;-67
2022/02/16 10:05:09;;;;;;;15.13;13.62;;;;;;;10.04;49.87;98829.81;1765188;80;21458;-68
2022/02/16 10:07:42;;;;;;;19.62;14.70;;;;;;;9.86;50.57;98842.62;1749463;80;20915;-65
2022/02/16 10:10:20;;;;;;;22.77;14.85;;;;;;;9.68;50.98;98836.81;1739060;80;20931;-65
2022/02/16 10:12:50;;;;;;;16.95;15.20;;;;;;;9.55;51.35;98834.77;1777217;80;20939;-68
2022/02/16 10:15:25;;;;;;;23.83;17.55;;;;;;;9.46;52.04;98832.38;1761777;80;20931;-65
2022/02/16 10:18:07;;;;;;;16.07;14.43;;;;;;;9.40;52.27;98826.44;1722824;82;21132;-67
2022/02/16 10:20:33;;;;;;;21.23;15.03;;;;;;;9.42;52.32;98811.98;1775418;80;21462;-65
2022/02/16 10:23:00;;;;;;;17.32;13.83;;;;;;;9.45;52.57;98798.85;1762101;80;20970;-64
2022/02/16 10:25:28;;;;;;;15.23;12.47;;;;;;;9.52;52.64;98793.97;1763837;80;21101;-67
2022/02/16 10:28:18;;;;;;;16.85;13.80;;;;;;;9.68;52.55;98795.15;1768368;80;20930;-65
2022/02/16 10:31:02;;;;;;;16.15;12.82;;;;;;;9.96;52.19;98794.55;1760432;80;21238;-66
2022/02/16 10:33:43;;;;;;;15.28;12.50;;;;;;;10.25;51.77;98791.89;1759160;80;20943;-67
2022/02/16 10:36:14;;;;;;;15.18;13.65;;;;;;;10.59;51.05;98788.13;1767348;80;20938;-66
2022/02/16 10:39:04;;;;;;;17.82;14.33;;;;;;;10.88;50.25;98780.08;1761140;80;20922;-67
2022/02/16 10:41:41;;;;;;;15.30;13.70;;;;;;;11.11;49.66;98774.06;1764363;80;20942;-65
2022/02/16 10:44:17;;;;;;;17.00;14.43;;;;;;;11.30;49.09;98775.27;1687808;83;21142;-66
2022/02/16 10:46:43;;;;;;;14.73;13.28;;;;;;;11.40;48.90;98764.27;1767289;80;21111;-67
2022/02/16 10:49:15;;;;;;;17.27;14.33;;;;;;;11.45;48.75;98750.70;1766864;80;20947;-64
2022/02/16 10:51:44;;;;;;;15.28;13.15;;;;;;;11.54;48.69;98742.06;1768313;80;21015;-66
2022/02/16 10:54:17;;;;;;;19.98;13.53;;;;;;;11.68;48.09;98734.45;1761733;80;21002;-64
2022/02/16 10:56:48;;;;;;;16.42;13.08;;;;;;;11.83;47.74;98725.06;1758498;80;21137;-65
2022/02/16 10:59:15;;;;;;;18.40;14.15;;;;;;;12.03;47.60;98732.15;1766375;80;20848;-65
2022/02/16 11:01:42;;;;;;;17.67;14.50;;;;;;;12.18;47.11;98736.83;1768859;80;21012;-66
2022/02/16 11:04:13;;;;;;;17.60;13.35;;;;;;;12.23;47.04;98741.06;1766858;80;20990;-66
2022/02/16 11:06:48;;;;;;;21.95;13.88;;;;;;;12.26;46.67;98736.66;1767945;80;20967;-66
2022/02/16 11:09:20;;;;;;;15.55;12.33;;;;;;;12.32;46.09;98747.88;1758487;80;21191;-66
2022/02/16 11:11:52;;;;;;;16.12;14.13;;;;;;;12.35;45.88;98736.83;1756742;80;21009;-64
2022/02/16 11:14:24;;;;;;;17.12;13.18;;;;;;;12.38;45.55;98743.60;1755027;80;20946;-64
2022/02/16 11:16:51;;;;;;;14.55;13.00;;;;;;;12.40;45.50;98729.55;1754551;80;21004;-66
2022/02/16 11:19:26;;;;;;;15.80;14.10;;;;;;;12.41;45.27;98722.38;1756901;80;20964;-65
2022/02/16 11:22:10;;;;;;;15.08;13.48;;;;;;;12.36;45.39;98719.78;1752920;80;21147;-66
2022/02/16 11:24:43;;;;;;;17.42;14.53;;;;;;;12.35;45.61;98715.99;1751387;80;20996;-67
2022/02/16 11:27:30;;;;;;;15.93;12.85;;;;;;;12.37;45.64;98708.09;1760114;80;21584;-66